createdAt,value
2017-08-10T00:02:23.098Z,32.00
2017-08-10T00:04:51.552Z,33.57
2017-08-10T00:07:19.989Z,34.47
2017-08-10T00:09:48.420Z,32.37
2017-08-10T00:12:16.883Z,30.00
2017-08-10T00:14:45.335Z,31.70
2017-08-10T00:17:13.786Z,30.80
2017-08-10T00:19:42.338Z,31.10
2017-08-10T00:22:10.753Z,31.17
2017-08-10T00:24:39.947Z,32.27
2017-08-10T00:27:08.389Z,33.50
2017-08-10T00:29:36.832Z,32.93
2017-08-10T00:32:05.274Z,34.17
2017-08-10T00:34:33.723Z,34.77
2017-08-10T00:37:02.202Z,32.37
2017-08-10T00:39:30.656Z,31.73
2017-08-10T00:41:59.102Z,33.70
2017-08-10T00:44:27.522Z,30.10
2017-08-10T00:46:55.934Z,33.37
2017-08-10T00:49:24.393Z,37.93
2017-08-10T00:51:52.799Z,37.10
2017-08-10T00:54:21.219Z,34.53
2017-08-10T00:56:49.701Z,37.90
2017-08-10T00:59:18.110Z,35.43
2017-08-10T01:01:46.545Z,35.20
2017-08-10T01:04:14.966Z,34.00
2017-08-10T01:06:43.369Z,30.77
2017-08-10T01:09:11.786Z,30.93
2017-08-10T01:11:40.213Z,30.30
2017-08-10T01:14:08.638Z,29.00
2017-08-10T01:16:37.077Z,28.27
2017-08-10T01:19:05.559Z,26.60
2017-08-10T01:21:33.974Z,27.67
2017-08-10T01:24:02.394Z,30.00
2017-08-10T01:26:30.834Z,27.43
2017-08-10T01:28:59.249Z,29.70
2017-08-10T01:31:27.664Z,23.13
2017-08-10T01:33:56.097Z,28.83
2017-08-10T01:36:24.513Z,28.00
2017-08-10T01:38:52.927Z,25.50
2017-08-10T01:41:21.384Z,25.53
2017-08-10T01:43:49.813Z,26.83
2017-08-10T01:46:18.224Z,25.27
2017-08-10T01:48:46.678Z,27.20
2017-08-10T01:51:14.778Z,25.30
2017-08-10T01:53:43.214Z,24.30
2017-08-10T01:56:11.676Z,28.13
2017-08-10T01:58:40.122Z,25.17
2017-08-10T02:01:07.914Z,24.47
2017-08-10T02:03:36.013Z,23.53
2017-08-10T02:06:04.418Z,21.70
2017-08-10T02:08:32.893Z,24.20
2017-08-10T02:11:01.339Z,20.07
2017-08-10T02:13:29.754Z,20.60
2017-08-10T02:15:58.231Z,21.87
2017-08-10T02:18:26.654Z,20.50
2017-08-10T02:20:55.113Z,22.30
2017-08-10T02:23:23.557Z,21.30
2017-08-10T02:25:52.009Z,20.67
2017-08-10T02:28:20.449Z,19.63
2017-08-10T02:30:48.901Z,18.70
2017-08-10T02:33:17.310Z,19.97
2017-08-10T02:35:45.742Z,20.83
2017-08-10T02:38:14.222Z,18.40
2017-08-10T02:40:42.679Z,18.47
2017-08-10T02:43:11.103Z,21.70
2017-08-10T02:45:39.581Z,20.20
2017-08-10T02:48:08.016Z,21.57
2017-08-10T02:50:36.456Z,18.87
2017-08-10T02:53:04.921Z,21.80
2017-08-10T02:55:33.362Z,19.50
2017-08-10T02:58:01.818Z,18.80
2017-08-10T03:00:30.265Z,21.37
2017-08-10T03:02:58.701Z,21.53
2017-08-10T03:05:27.159Z,19.60
2017-08-10T03:07:55.692Z,18.83
2017-08-10T03:10:24.174Z,18.10
2017-08-10T03:12:52.607Z,18.80
2017-08-10T03:15:21.069Z,19.07
2017-08-10T03:17:49.547Z,17.77
2017-08-10T03:20:17.954Z,14.73
2017-08-10T03:22:46.419Z,18.73
2017-08-10T03:25:14.866Z,16.97
2017-08-10T03:27:43.309Z,14.97
2017-08-10T03:30:11.752Z,15.50
2017-08-10T03:32:40.167Z,15.47
2017-08-10T03:35:08.624Z,14.83
2017-08-10T03:37:37.083Z,13.50
2017-08-10T03:40:06.278Z,15.00
2017-08-10T03:42:34.723Z,14.43
2017-08-10T03:45:03.146Z,12.73
2017-08-10T03:47:32.326Z,14.27
2017-08-10T03:50:00.751Z,15.77
2017-08-10T03:52:29.163Z,15.40
2017-08-10T03:54:57.577Z,14.73
2017-08-10T03:57:26.002Z,13.23
2017-08-10T03:59:54.441Z,15.23
2017-08-10T04:02:22.872Z,13.40
2017-08-10T04:04:51.302Z,15.27
2017-08-10T04:07:19.715Z,13.80
2017-08-10T04:09:48.199Z,12.77
2017-08-10T04:12:16.645Z,12.70
2017-08-10T04:14:45.061Z,13.73
2017-08-10T04:17:13.871Z,13.07
2017-08-10T04:19:42.282Z,13.50
2017-08-10T04:22:10.686Z,11.50
2017-08-10T04:24:39.918Z,13.80
2017-08-10T04:27:08.321Z,11.77
2017-08-10T04:29:36.764Z,13.97
2017-08-10T04:32:05.234Z,13.40
2017-08-10T04:34:33.660Z,12.60
2017-08-10T04:37:02.073Z,14.97
2017-08-10T04:39:30.514Z,12.97
2017-08-10T04:41:59.196Z,11.60
2017-08-10T04:44:27.623Z,11.57
2017-08-10T04:46:56.090Z,13.17
2017-08-10T04:49:24.514Z,13.13
2017-08-10T04:51:52.950Z,13.10
2017-08-10T04:54:21.387Z,13.43
2017-08-10T04:56:49.828Z,13.23
2017-08-10T04:59:18.249Z,13.23
2017-08-10T05:01:46.718Z,13.30
2017-08-10T05:04:15.174Z,13.57
2017-08-10T05:06:43.611Z,13.67
2017-08-10T05:09:15.842Z,14.23
2017-08-10T05:11:44.255Z,13.70
2017-08-10T05:14:12.709Z,13.43
2017-08-10T05:16:41.144Z,15.17
2017-08-10T05:19:09.550Z,14.50
2017-08-10T05:21:38.186Z,13.50
2017-08-10T05:24:06.610Z,13.33
2017-08-10T05:26:35.094Z,12.53
2017-08-10T05:29:03.558Z,12.23
2017-08-10T05:31:32.020Z,11.30
2017-08-10T05:34:00.434Z,13.17
2017-08-10T05:36:28.877Z,12.07
2017-08-10T05:38:58.040Z,13.10
2017-08-10T05:41:26.458Z,12.07
2017-08-10T05:43:54.935Z,12.77
2017-08-10T05:46:23.658Z,11.60
2017-08-10T05:48:52.069Z,13.40
2017-08-10T05:51:20.481Z,12.10
2017-08-10T05:53:49.203Z,12.07
2017-08-10T05:56:17.629Z,11.73
2017-08-10T05:58:46.035Z,14.00
2017-08-10T06:01:14.474Z,13.90
2017-08-10T06:03:42.873Z,13.17
2017-08-10T06:06:11.303Z,12.40
2017-08-10T06:08:39.789Z,12.57
2017-08-10T06:11:08.219Z,13.90
2017-08-10T06:13:36.710Z,14.47
2017-08-10T06:16:05.213Z,12.60
2017-08-10T06:18:34.679Z,12.53
2017-08-10T06:21:03.163Z,11.83
2017-08-10T06:23:31.633Z,11.97
2017-08-10T06:26:00.099Z,11.67
2017-08-10T06:28:28.525Z,11.43
2017-08-10T06:30:59.042Z,11.93
2017-08-10T06:33:27.424Z,11.83
2017-08-10T06:35:55.935Z,11.43
2017-08-10T06:38:24.342Z,11.20
2017-08-10T06:40:53.017Z,12.27
2017-08-10T06:43:23.677Z,10.97
2017-08-10T06:45:52.377Z,11.27
2017-08-10T06:48:22.937Z,12.00
2017-08-10T06:50:51.917Z,11.90
2017-08-10T06:53:20.632Z,12.27
2017-08-10T06:55:49.067Z,12.27
2017-08-10T06:58:17.490Z,12.90
2017-08-10T07:00:49.790Z,12.90
2017-08-10T07:03:18.210Z,12.40
2017-08-10T07:05:46.899Z,11.77
2017-08-10T07:08:15.334Z,11.33
2017-08-10T07:10:43.802Z,11.30
2017-08-10T07:13:12.294Z,10.23
2017-08-10T07:15:41.593Z,9.23
2017-08-10T07:18:10.074Z,11.77
2017-08-10T07:20:38.780Z,11.13
2017-08-10T07:23:07.236Z,12.10
2017-08-10T07:25:35.665Z,12.00
2017-08-10T07:28:04.110Z,12.20
2017-08-10T07:30:32.771Z,11.23
2017-08-10T07:33:01.292Z,10.63
2017-08-10T07:35:30.480Z,9.83
2017-08-10T07:37:59.027Z,11.40
2017-08-10T07:40:27.731Z,12.33
2017-08-10T07:42:56.183Z,13.50
2017-08-10T07:45:25.450Z,13.27
2017-08-10T07:47:54.138Z,14.27
2017-08-10T07:50:22.811Z,14.00
2017-08-10T07:52:53.996Z,13.07
2017-08-10T07:55:22.438Z,13.73
2017-08-10T07:57:50.999Z,13.10
2017-08-10T08:00:19.450Z,13.90
2017-08-10T08:02:47.853Z,14.40
2017-08-10T08:05:16.307Z,15.00
2017-08-10T08:07:44.809Z,15.70
2017-08-10T08:10:13.240Z,15.33
2017-08-10T08:12:42.042Z,15.73
2017-08-10T08:15:10.755Z,13.23
2017-08-10T08:17:39.262Z,13.20
2017-08-10T08:20:07.734Z,10.97
2017-08-10T08:22:36.453Z,12.17
2017-08-10T08:25:04.933Z,11.40
2017-08-10T08:27:33.606Z,10.47
2017-08-10T08:30:02.658Z,9.47
2017-08-10T08:32:31.158Z,9.37
2017-08-10T08:34:59.926Z,9.20
2017-08-10T08:37:28.604Z,8.60
2017-08-10T08:39:57.376Z,9.63
2017-08-10T08:42:26.106Z,8.93
2017-08-10T08:44:54.653Z,9.50
2017-08-10T08:47:23.131Z,8.80
2017-08-10T08:49:51.656Z,10.20
2017-08-10T08:52:20.374Z,9.27
2017-08-10T08:54:49.080Z,9.63
2017-08-10T08:57:17.566Z,10.20
2017-08-10T08:59:46.285Z,10.30
2017-08-10T09:02:14.710Z,9.27
2017-08-10T09:04:43.451Z,9.50
2017-08-10T09:07:12.161Z,9.40
2017-08-10T09:09:40.643Z,9.13
2017-08-10T09:12:09.115Z,8.40
2017-08-10T09:14:37.616Z,9.00
2017-08-10T09:17:06.154Z,9.63
2017-08-10T09:19:34.678Z,8.57
2017-08-10T09:22:03.628Z,8.30
2017-08-10T09:24:32.115Z,7.63
2017-08-10T09:27:00.670Z,8.27
2017-08-10T09:29:29.229Z,8.70
2017-08-10T09:31:57.691Z,8.77
2017-08-10T09:34:26.390Z,8.53
2017-08-10T09:36:55.006Z,8.90
2017-08-10T09:39:23.539Z,9.83
2017-08-10T09:41:52.065Z,10.03
2017-08-10T09:44:20.508Z,9.70
2017-08-10T09:46:49.088Z,7.20
2017-08-10T09:49:17.266Z,8.40
2017-08-10T09:51:45.764Z,8.10
2017-08-10T09:54:14.274Z,8.03
2017-08-10T09:56:42.832Z,8.20
2017-08-10T09:59:11.370Z,9.53
2017-08-10T10:01:39.912Z,7.73
2017-08-10T10:04:08.413Z,8.40
2017-08-10T10:06:36.906Z,8.23
2017-08-10T10:09:04.681Z,8.50
2017-08-10T10:11:33.149Z,7.77
2017-08-10T10:14:01.639Z,8.77
2017-08-10T10:16:30.164Z,9.43
2017-08-10T10:18:59.052Z,9.83
2017-08-10T10:21:27.593Z,11.00
2017-08-10T10:23:56.087Z,11.43
2017-08-10T10:26:24.927Z,11.50
2017-08-10T10:28:53.809Z,13.20
2017-08-10T10:31:23.504Z,12.73
2017-08-10T10:33:52.450Z,12.33
2017-08-10T10:36:21.327Z,11.20
2017-08-10T10:38:50.222Z,14.23
2017-08-10T10:41:19.184Z,11.70
2017-08-10T10:43:47.769Z,14.43
2017-08-10T10:46:16.070Z,14.90
2017-08-10T10:48:45.044Z,14.97
2017-08-10T10:51:13.865Z,12.70
2017-08-10T10:53:42.788Z,12.10
2017-08-10T10:56:11.771Z,11.63
2017-08-10T10:58:41.140Z,9.80
2017-08-10T11:01:11.836Z,8.63
2017-08-10T11:03:40.804Z,8.67
2017-08-10T11:06:10.039Z,7.27
2017-08-10T11:08:38.900Z,8.10
2017-08-10T11:11:07.878Z,7.87
2017-08-10T11:13:36.631Z,7.83
2017-08-10T11:16:05.648Z,10.90
2017-08-10T11:18:34.685Z,8.57
2017-08-10T11:21:03.638Z,8.10
2017-08-10T11:23:33.282Z,8.97
2017-08-10T11:26:01.810Z,9.10
2017-08-10T11:28:30.306Z,9.83
2017-08-10T11:30:58.534Z,9.83
2017-08-10T11:33:26.950Z,10.33
2017-08-10T11:35:55.377Z,11.63
2017-08-10T11:38:23.772Z,9.80
2017-08-10T11:40:52.182Z,10.07
2017-08-10T11:43:22.002Z,9.00
2017-08-10T11:45:50.880Z,10.67
2017-08-10T11:48:19.675Z,11.23
2017-08-10T11:50:48.174Z,9.83
2017-08-10T11:53:16.635Z,10.07
2017-08-10T11:55:45.473Z,13.07
2017-08-10T11:58:14.650Z,13.47
2017-08-10T12:03:16.266Z,12.37
2017-08-10T12:05:44.969Z,13.97
2017-08-10T12:08:13.828Z,13.20
2017-08-10T12:10:42.298Z,14.03
2017-08-10T12:13:10.742Z,12.30
2017-08-10T12:15:39.158Z,13.93
2017-08-10T12:18:07.589Z,13.80
2017-08-10T12:20:36.266Z,13.90
2017-08-10T12:23:04.673Z,15.10
2017-08-10T12:25:33.128Z,15.00
2017-08-10T12:28:01.897Z,15.27
2017-08-10T12:30:31.474Z,15.73
2017-08-10T12:33:00.423Z,17.57
2017-08-10T12:35:29.335Z,16.93
2017-08-10T12:37:58.346Z,17.97
2017-08-10T12:40:27.278Z,16.13
2017-08-10T12:42:56.563Z,16.93
2017-08-10T12:45:25.662Z,17.00
2017-08-10T12:47:54.675Z,18.40
2017-08-10T12:50:23.651Z,17.70
2017-08-10T12:52:52.167Z,16.30
2017-08-10T12:55:21.123Z,16.30
2017-08-10T12:57:50.462Z,15.37
2017-08-10T13:00:18.648Z,17.67
2017-08-10T13:02:47.180Z,18.40
2017-08-10T13:05:15.667Z,16.37
2017-08-10T13:07:44.156Z,15.80
2017-08-10T13:10:12.632Z,13.63
2017-08-10T13:12:41.931Z,12.13
2017-08-10T13:15:10.457Z,11.57
2017-08-10T13:17:38.971Z,12.17
2017-08-10T13:20:08.107Z,13.47
2017-08-10T13:22:36.615Z,13.97
2017-08-10T13:25:05.076Z,14.90
2017-08-10T13:27:33.594Z,12.50
2017-08-10T13:30:01.969Z,13.33
2017-08-10T13:32:30.432Z,11.50
2017-08-10T13:34:58.884Z,13.73
2017-08-10T13:37:27.333Z,13.30
2017-08-10T13:39:55.754Z,15.13
2017-08-10T13:42:24.635Z,13.10
2017-08-10T13:44:53.575Z,13.97
2017-08-10T13:47:22.416Z,12.27
2017-08-10T13:49:51.343Z,13.67
2017-08-10T13:52:20.154Z,12.50
2017-08-10T13:54:48.621Z,11.77
2017-08-10T13:57:17.067Z,12.70
2017-08-10T13:59:45.563Z,13.23
2017-08-10T14:02:14.659Z,14.10
2017-08-10T14:04:43.101Z,14.37
2017-08-10T14:07:11.535Z,11.80
2017-08-10T14:09:39.999Z,13.87
2017-08-10T14:12:08.432Z,12.57
2017-08-10T14:14:36.900Z,12.80
2017-08-10T14:17:05.359Z,12.30
2017-08-10T14:19:33.799Z,12.50
2017-08-10T14:22:02.324Z,10.90
2017-08-10T14:24:30.784Z,12.47
2017-08-10T14:26:59.208Z,11.90
2017-08-10T14:29:27.701Z,12.87
2017-08-10T14:31:56.129Z,13.13
2017-08-10T14:34:24.576Z,11.83
2017-08-10T14:36:53.021Z,11.50
2017-08-10T14:39:21.445Z,12.00
2017-08-10T14:41:49.865Z,10.97
2017-08-10T14:44:18.349Z,13.13
2017-08-10T14:46:46.781Z,12.13
2017-08-10T14:49:15.197Z,13.80
2017-08-10T14:51:43.687Z,12.37
2017-08-10T14:54:12.106Z,13.13
2017-08-10T14:56:40.548Z,13.93
2017-08-10T14:59:09.001Z,14.20
2017-08-10T15:01:37.434Z,11.33
2017-08-10T15:04:05.880Z,12.80
2017-08-10T15:06:34.314Z,12.50
2017-08-10T15:09:02.870Z,11.17
2017-08-10T15:11:31.281Z,12.17
2017-08-10T15:13:59.722Z,11.90
2017-08-10T15:16:28.137Z,13.83
2017-08-10T15:18:56.533Z,13.13
2017-08-10T15:21:24.975Z,13.10
2017-08-10T15:23:55.030Z,12.80
2017-08-10T15:26:23.812Z,12.57
2017-08-10T15:28:52.313Z,13.03
2017-08-10T15:31:20.709Z,12.90
2017-08-10T15:33:48.923Z,14.30
2017-08-10T15:36:17.342Z,13.40
2017-08-10T15:38:45.815Z,12.10
2017-08-10T15:41:14.223Z,10.70
2017-08-10T15:43:42.663Z,11.70
2017-08-10T15:46:11.078Z,12.87
2017-08-10T15:48:39.490Z,11.20
2017-08-10T15:51:08.061Z,11.87
2017-08-10T15:53:36.469Z,11.50
2017-08-10T15:56:04.888Z,11.53
2017-08-10T15:58:34.080Z,11.50
2017-08-10T16:01:02.493Z,12.00
2017-08-10T16:03:30.895Z,11.97
2017-08-10T16:05:59.334Z,11.93
2017-08-10T16:08:28.509Z,13.10
2017-08-10T16:10:56.963Z,13.23
2017-08-10T16:13:25.374Z,12.23
2017-08-10T16:15:53.792Z,12.23
2017-08-10T16:18:22.259Z,13.17
2017-08-10T16:20:50.669Z,13.43
2017-08-10T16:23:19.083Z,13.80
2017-08-10T16:25:47.526Z,14.53
2017-08-10T16:28:16.006Z,13.33
2017-08-10T16:30:44.406Z,14.30
2017-08-10T16:33:12.830Z,14.97
2017-08-10T16:35:41.242Z,14.20
2017-08-10T16:38:09.682Z,15.17
2017-08-10T16:40:38.110Z,15.10
2017-08-10T16:43:06.546Z,15.87
2017-08-10T16:45:34.973Z,15.97
2017-08-10T16:48:03.411Z,15.63
2017-08-10T16:50:31.823Z,16.77
2017-08-10T16:53:00.244Z,16.23
2017-08-10T16:55:28.682Z,15.00
2017-08-10T16:57:57.113Z,17.63
2017-08-10T17:00:25.564Z,18.77
2017-08-10T17:02:54.045Z,18.60
2017-08-10T17:05:22.469Z,19.27
2017-08-10T17:07:50.935Z,18.47
2017-08-10T17:10:19.506Z,18.43
2017-08-10T17:12:47.946Z,19.20
2017-08-10T17:15:16.381Z,19.40
2017-08-10T17:17:44.814Z,17.83
2017-08-10T17:20:13.251Z,18.20
2017-08-10T17:22:41.694Z,19.20
2017-08-10T17:25:10.194Z,18.30
2017-08-10T17:27:38.622Z,18.40
2017-08-10T17:30:07.072Z,17.60
2017-08-10T17:32:35.509Z,19.03
2017-08-10T17:35:03.913Z,20.70
2017-08-10T17:37:32.324Z,17.67
2017-08-10T17:40:00.763Z,19.47
2017-08-10T17:42:29.178Z,17.30
2017-08-10T17:44:57.603Z,18.97
2017-08-10T17:47:26.026Z,16.60
2017-08-10T17:49:54.430Z,14.90
2017-08-10T17:52:22.829Z,16.70
2017-08-10T17:54:51.313Z,14.93
2017-08-10T17:57:19.730Z,15.17
2017-08-10T17:59:48.136Z,15.77
2017-08-10T18:02:16.562Z,16.50
2017-08-10T18:04:44.965Z,16.57
2017-08-10T18:07:14.153Z,15.50
2017-08-10T18:09:42.580Z,15.20
2017-08-10T18:12:11.001Z,17.63
2017-08-10T18:14:39.459Z,14.87
2017-08-10T18:17:08.121Z,15.57
2017-08-10T18:19:36.566Z,16.00
2017-08-10T18:22:04.998Z,15.90
2017-08-10T18:24:33.422Z,13.53
2017-08-10T18:27:01.887Z,14.00
2017-08-10T18:29:30.290Z,13.10
2017-08-10T18:32:00.014Z,14.47
2017-08-10T18:34:28.428Z,16.77
2017-08-10T18:36:56.853Z,12.90
2017-08-10T18:39:25.326Z,12.57
2017-08-10T18:41:53.796Z,13.00
2017-08-10T18:44:22.390Z,13.07
2017-08-10T18:46:50.872Z,13.30
2017-08-10T18:49:21.166Z,12.00
2017-08-10T18:51:50.961Z,11.67
2017-08-10T18:54:19.631Z,11.20
2017-08-10T18:56:48.065Z,12.10
2017-08-10T18:59:16.525Z,10.20
2017-08-10T19:01:44.954Z,11.80
2017-08-10T19:04:13.356Z,11.57
2017-08-10T19:06:41.941Z,13.50
2017-08-10T19:09:10.624Z,11.30
2017-08-10T19:11:39.061Z,12.20
2017-08-10T19:14:07.578Z,10.17
2017-08-10T19:16:36.029Z,11.20
2017-08-10T19:19:04.473Z,11.97
2017-08-10T19:21:35.537Z,12.93
2017-08-10T19:24:04.544Z,13.70
2017-08-10T19:26:33.003Z,12.60
2017-08-10T19:29:01.409Z,13.60
2017-08-10T19:31:29.922Z,13.07
2017-08-10T19:33:58.321Z,14.00
2017-08-10T19:36:27.497Z,13.03
2017-08-10T19:38:55.945Z,13.00
2017-08-10T19:41:24.386Z,12.73
2017-08-10T19:43:52.838Z,14.20
2017-08-10T19:46:21.316Z,12.50
2017-08-10T19:48:49.786Z,12.07
2017-08-10T19:51:18.243Z,12.83
2017-08-10T19:53:46.668Z,11.23
2017-08-10T19:56:15.104Z,9.90
2017-08-10T19:58:43.561Z,10.77
2017-08-10T20:01:12.004Z,9.60
2017-08-10T20:03:40.726Z,11.50
2017-08-10T20:06:09.268Z,10.43
2017-08-10T20:08:37.707Z,10.70
2017-08-10T20:11:06.163Z,11.20
2017-08-10T20:13:34.653Z,10.87
2017-08-10T20:16:03.994Z,11.43
2017-08-10T20:18:32.453Z,9.27
2017-08-10T20:21:00.933Z,10.70
2017-08-10T20:23:29.420Z,9.00
2017-08-10T20:25:57.877Z,10.37
2017-08-10T20:28:26.292Z,10.47
2017-08-10T20:30:54.735Z,8.60
2017-08-10T20:33:23.231Z,10.47
2017-08-10T20:35:51.666Z,8.10
2017-08-10T20:38:20.104Z,9.77
2017-08-10T20:40:48.542Z,8.53
2017-08-10T20:43:16.947Z,8.63
2017-08-10T20:45:45.414Z,9.87
2017-08-10T20:48:13.887Z,8.27
2017-08-10T20:50:42.308Z,8.90
2017-08-10T20:53:10.725Z,9.53
2017-08-10T20:55:39.175Z,11.27
2017-08-10T20:58:08.185Z,11.43
2017-08-10T21:00:36.723Z,12.60
2017-08-10T21:03:05.206Z,10.90
2017-08-10T21:05:34.412Z,12.30
2017-08-10T21:08:02.911Z,14.13
2017-08-10T21:10:31.454Z,11.13
2017-08-10T21:12:59.899Z,11.50
2017-08-10T21:15:28.330Z,13.40
2017-08-10T21:17:57.526Z,11.70
2017-08-10T21:20:25.974Z,12.57
2017-08-10T21:22:54.533Z,11.70
2017-08-10T21:25:22.981Z,13.77
2017-08-10T21:27:51.413Z,12.50
2017-08-10T21:30:19.899Z,12.07
2017-08-10T21:32:48.375Z,9.63
2017-08-10T21:35:16.778Z,8.43
2017-08-10T21:37:45.185Z,10.37
2017-08-10T21:40:13.605Z,9.63
2017-08-10T21:42:42.202Z,9.43
2017-08-10T21:45:10.627Z,9.13
2017-08-10T21:47:39.159Z,11.87
2017-08-10T21:50:07.600Z,10.47
2017-08-10T21:52:36.033Z,8.50
2017-08-10T21:55:04.513Z,9.20
2017-08-10T21:57:32.961Z,9.63
2017-08-10T22:00:01.389Z,7.83
2017-08-10T22:02:29.880Z,8.57
2017-08-10T22:04:58.310Z,9.20
2017-08-10T22:07:26.758Z,8.87
2017-08-10T22:09:55.170Z,8.17
2017-08-10T22:12:23.673Z,8.17
2017-08-10T22:14:52.112Z,8.97
2017-08-10T22:17:20.591Z,8.70
2017-08-10T22:19:49.049Z,8.93
2017-08-10T22:22:17.521Z,7.33
2017-08-10T22:24:45.982Z,8.80
2017-08-10T22:27:14.622Z,9.23
2017-08-10T22:29:43.116Z,8.60
2017-08-10T22:32:11.609Z,9.37
2017-08-10T22:34:40.025Z,8.30
2017-08-10T22:37:08.468Z,8.50
2017-08-10T22:39:36.882Z,8.53
2017-08-10T22:42:05.336Z,8.80
2017-08-10T22:44:33.807Z,8.83
2017-08-10T22:47:02.219Z,8.60
2017-08-10T22:49:30.704Z,7.37
2017-08-10T22:51:59.208Z,7.50
2017-08-10T22:54:27.622Z,8.07
2017-08-10T22:56:56.059Z,7.87
2017-08-10T22:59:24.465Z,7.90
2017-08-10T23:01:52.873Z,9.10
2017-08-10T23:04:21.337Z,8.47
2017-08-10T23:06:49.795Z,9.27
2017-08-10T23:09:18.242Z,9.67
2017-08-10T23:11:46.727Z,9.40
2017-08-10T23:14:15.141Z,10.57
2017-08-10T23:16:43.558Z,8.97
2017-08-10T23:19:12.009Z,7.70
2017-08-10T23:21:40.437Z,9.07
2017-08-10T23:24:08.841Z,8.83
2017-08-10T23:26:37.261Z,8.80
2017-08-10T23:29:05.668Z,8.60
2017-08-10T23:31:34.074Z,7.80
2017-08-10T23:34:02.503Z,8.00
2017-08-10T23:36:30.914Z,8.50
2017-08-10T23:38:59.327Z,7.33
2017-08-10T23:41:27.755Z,8.40
2017-08-10T23:43:56.161Z,7.70
2017-08-10T23:46:24.577Z,8.00
2017-08-10T23:48:53.070Z,8.90
2017-08-10T23:51:21.517Z,10.40
2017-08-10T23:53:50.465Z,9.27
2017-08-10T23:56:18.881Z,7.87
2017-08-10T23:58:50.710Z,9.37
